createdAt,value
2018-10-18T00:02:27.838Z,80.70
2018-10-18T00:05:03.912Z,80.60
2018-10-18T00:07:39.963Z,80.80
2018-10-18T00:10:15.923Z,81.40
2018-10-18T00:12:52.025Z,81.50
2018-10-18T00:15:28.159Z,81.50
2018-10-18T00:18:04.526Z,81.80
2018-10-18T00:20:40.515Z,82.10
2018-10-18T00:23:16.619Z,83.10
2018-10-18T00:25:52.590Z,83.80
2018-10-18T00:28:28.759Z,84.10
2018-10-18T00:31:04.889Z,85.20
2018-10-18T00:33:40.998Z,83.80
2018-10-18T00:36:17.090Z,83.70
2018-10-18T00:38:53.053Z,84.10
2018-10-18T00:41:29.222Z,84.80
2018-10-18T00:44:06.491Z,84.70
2018-10-18T00:46:42.465Z,85.10
2018-10-18T00:49:18.772Z,85.50
2018-10-18T00:51:54.886Z,84.70
2018-10-18T00:54:30.946Z,85.30
2018-10-18T00:57:06.932Z,84.90
2018-10-18T00:59:43.184Z,84.70
2018-10-18T01:02:19.302Z,84.80
2018-10-18T01:04:55.384Z,85.00
2018-10-18T01:07:31.545Z,85.60
2018-10-18T01:10:07.548Z,85.30
2018-10-18T01:12:43.718Z,85.60
2018-10-18T01:15:19.668Z,85.70
2018-10-18T01:17:55.991Z,85.90
2018-10-18T01:20:32.073Z,86.30
2018-10-18T01:23:08.801Z,86.20
2018-10-18T01:25:44.878Z,86.30
2018-10-18T01:28:20.890Z,86.40
2018-10-18T01:30:57.913Z,86.80
2018-10-18T01:33:34.234Z,86.50
2018-10-18T01:36:10.720Z,86.70
2018-10-18T01:38:46.996Z,87.00
2018-10-18T01:41:23.059Z,87.10
2018-10-18T01:43:59.240Z,87.10
2018-10-18T01:46:35.395Z,86.90
2018-10-18T01:49:11.672Z,87.30
2018-10-18T01:51:47.692Z,87.30
2018-10-18T01:54:23.716Z,87.60
2018-10-18T01:56:59.968Z,87.60
2018-10-18T01:59:36.050Z,87.60
2018-10-18T02:02:12.059Z,87.50
2018-10-18T02:04:48.204Z,87.90
2018-10-18T02:07:24.439Z,88.20
2018-10-18T02:10:00.391Z,88.70
2018-10-18T02:12:36.472Z,88.60
2018-10-18T02:15:12.583Z,88.40
2018-10-18T02:17:48.708Z,88.50
2018-10-18T02:20:24.956Z,88.50
2018-10-18T02:23:01.105Z,89.00
2018-10-18T02:25:37.393Z,88.70
2018-10-18T02:28:13.636Z,89.00
2018-10-18T02:30:49.628Z,88.80
2018-10-18T02:33:25.707Z,88.60
2018-10-18T02:36:02.060Z,88.50
2018-10-18T02:38:38.027Z,88.60
2018-10-18T02:41:14.239Z,88.50
2018-10-18T02:43:50.410Z,89.00
2018-10-18T02:46:26.533Z,89.20
2018-10-18T02:49:02.765Z,89.00
2018-10-18T02:51:38.830Z,89.00
2018-10-18T02:54:15.106Z,89.00
2018-10-18T02:56:51.216Z,89.20
2018-10-18T02:59:27.380Z,89.40
2018-10-18T03:02:03.476Z,89.20
2018-10-18T03:04:39.762Z,89.40
2018-10-18T03:07:15.859Z,89.70
2018-10-18T03:09:51.820Z,88.90
2018-10-18T03:12:27.981Z,89.20
2018-10-18T03:15:03.981Z,89.60
2018-10-18T03:17:40.107Z,90.50
2018-10-18T03:20:16.267Z,90.40
2018-10-18T03:22:52.515Z,90.50
2018-10-18T03:25:28.448Z,90.90
2018-10-18T03:28:04.597Z,90.60
2018-10-18T03:30:40.740Z,90.70
2018-10-18T03:33:16.657Z,90.80
2018-10-18T03:35:52.824Z,91.00
2018-10-18T03:38:28.772Z,92.10
2018-10-18T03:41:04.790Z,90.50
2018-10-18T03:43:40.821Z,90.70
2018-10-18T03:46:16.876Z,91.30
2018-10-18T03:48:52.995Z,90.90
2018-10-18T03:51:29.167Z,91.00
2018-10-18T03:54:05.453Z,91.50
2018-10-18T03:56:41.529Z,91.90
2018-10-18T03:59:17.619Z,92.70
2018-10-18T04:01:53.794Z,91.90
2018-10-18T04:04:30.061Z,91.60
2018-10-18T04:07:06.805Z,91.60
2018-10-18T04:09:42.784Z,91.60
2018-10-18T04:12:19.051Z,91.80
2018-10-18T04:14:55.175Z,91.90
2018-10-18T04:17:31.307Z,92.10
2018-10-18T04:20:08.017Z,91.90
2018-10-18T04:22:44.111Z,91.80
2018-10-18T04:25:20.309Z,92.30
2018-10-18T04:27:56.461Z,92.20
2018-10-18T04:30:32.479Z,92.60
2018-10-18T04:33:08.552Z,92.90
2018-10-18T04:35:44.548Z,92.90
2018-10-18T04:38:20.723Z,93.00
2018-10-18T04:40:56.836Z,93.40
2018-10-18T04:43:33.075Z,93.80
2018-10-18T04:46:09.226Z,94.00
2018-10-18T04:48:45.385Z,94.20
2018-10-18T04:51:21.562Z,94.20
2018-10-18T04:53:57.630Z,94.40
2018-10-18T04:56:33.618Z,95.00
2018-10-18T04:59:09.797Z,95.20
2018-10-18T05:01:46.216Z,94.80
2018-10-18T05:04:22.354Z,94.80
2018-10-18T05:06:58.445Z,95.70
2018-10-18T05:09:34.593Z,95.90
2018-10-18T05:12:10.665Z,95.80
2018-10-18T05:14:46.831Z,96.20
2018-10-18T05:17:24.201Z,96.90
2018-10-18T05:20:00.196Z,96.80
2018-10-18T05:22:36.526Z,96.90
2018-10-18T05:25:12.619Z,96.70
2018-10-18T05:27:48.746Z,97.10
2018-10-18T05:30:24.798Z,96.90
2018-10-18T05:33:01.164Z,96.50
2018-10-18T05:35:37.312Z,95.70
2018-10-18T05:38:13.553Z,95.80
2018-10-18T05:40:49.679Z,95.50
2018-10-18T05:43:26.005Z,95.30
2018-10-18T05:46:02.151Z,95.30
2018-10-18T05:48:38.332Z,95.40
2018-10-18T05:51:14.493Z,95.40
2018-10-18T05:53:51.368Z,95.10
2018-10-18T05:56:27.476Z,94.70
2018-10-18T05:59:03.503Z,94.50
2018-10-18T06:01:39.769Z,94.20
2018-10-18T06:04:15.844Z,94.10
2018-10-18T06:06:52.110Z,94.10
2018-10-18T06:09:31.798Z,94.30
2018-10-18T06:12:07.931Z,94.20
2018-10-18T06:14:43.996Z,93.70
2018-10-18T06:17:20.234Z,93.40
2018-10-18T06:19:56.542Z,92.90
2018-10-18T06:22:32.479Z,92.40
2018-10-18T06:25:09.182Z,92.20
2018-10-18T06:27:45.088Z,92.20
2018-10-18T06:30:21.145Z,91.90
2018-10-18T06:32:57.356Z,91.30
2018-10-18T06:35:33.503Z,90.40
2018-10-18T06:38:09.662Z,89.70
2018-10-18T06:40:45.850Z,88.10
2018-10-18T06:43:21.819Z,86.70
2018-10-18T06:45:57.963Z,84.80
2018-10-18T06:48:33.932Z,82.60
2018-10-18T06:51:10.447Z,83.60
2018-10-18T06:53:46.482Z,81.50
2018-10-18T06:56:22.534Z,80.70
2018-10-18T06:58:58.771Z,79.10
2018-10-18T07:01:34.825Z,78.10
2018-10-18T07:04:10.967Z,75.30
2018-10-18T07:06:47.150Z,73.40
2018-10-18T07:09:23.279Z,72.00
2018-10-18T07:11:59.340Z,71.10
2018-10-18T07:14:35.629Z,70.20
2018-10-18T07:17:11.788Z,68.80
2018-10-18T07:19:47.904Z,68.20
2018-10-18T07:22:24.115Z,67.80
2018-10-18T07:25:00.151Z,66.60
2018-10-18T07:27:36.329Z,65.20
2018-10-18T07:30:13.939Z,65.20
2018-10-18T07:32:49.873Z,63.90
2018-10-18T07:35:25.938Z,64.00
2018-10-18T07:38:02.104Z,62.30
2018-10-18T07:40:38.053Z,62.10
2018-10-18T07:43:14.209Z,62.60
2018-10-18T07:45:50.385Z,62.60
2018-10-18T07:48:26.534Z,61.50
2018-10-18T07:51:02.655Z,61.40
2018-10-18T07:53:38.794Z,61.30
2018-10-18T07:56:14.905Z,61.20
2018-10-18T07:58:51.065Z,61.50
2018-10-18T08:01:27.238Z,60.70
2018-10-18T08:04:03.222Z,61.00
2018-10-18T08:06:39.259Z,59.70
2018-10-18T08:09:15.418Z,60.20
2018-10-18T08:11:51.563Z,59.20
2018-10-18T08:14:27.656Z,58.50
2018-10-18T08:17:04.095Z,59.50
2018-10-18T08:19:40.187Z,59.90
2018-10-18T08:22:16.278Z,59.50
2018-10-18T08:24:52.478Z,59.10
2018-10-18T08:27:28.744Z,59.00
2018-10-18T08:30:05.450Z,58.20
2018-10-18T08:32:41.838Z,57.70
2018-10-18T08:35:17.803Z,57.90
2018-10-18T08:37:54.135Z,59.10
2018-10-18T08:40:30.274Z,59.40
2018-10-18T08:43:06.814Z,58.90
2018-10-18T08:45:42.812Z,58.90
2018-10-18T08:48:19.058Z,57.70
2018-10-18T08:50:55.210Z,57.50
2018-10-18T08:53:31.368Z,56.10
2018-10-18T08:56:07.385Z,55.50
2018-10-18T08:58:43.459Z,55.00
2018-10-18T09:01:19.597Z,54.90
2018-10-18T09:03:55.821Z,55.40
2018-10-18T09:06:32.164Z,55.80
2018-10-18T09:09:09.276Z,55.70
2018-10-18T09:11:45.218Z,55.20
2018-10-18T09:14:21.273Z,54.40
2018-10-18T09:16:57.297Z,53.20
2018-10-18T09:19:33.543Z,52.90
2018-10-18T09:22:09.766Z,51.90
2018-10-18T09:24:45.849Z,51.10
2018-10-18T09:27:21.915Z,52.00
2018-10-18T09:29:58.236Z,52.50
2018-10-18T09:32:34.294Z,51.10
2018-10-18T09:35:10.654Z,49.10
2018-10-18T09:37:46.700Z,48.80
2018-10-18T09:40:22.760Z,49.40
2018-10-18T09:42:58.930Z,50.20
2018-10-18T09:45:35.003Z,50.20
2018-10-18T09:48:11.024Z,49.70
2018-10-18T09:50:47.225Z,49.50
2018-10-18T09:53:23.444Z,48.90
2018-10-18T09:55:59.461Z,48.60
2018-10-18T09:58:35.491Z,48.30
2018-10-18T10:01:17.217Z,47.90
2018-10-18T10:03:53.367Z,47.60
2018-10-18T10:06:29.397Z,46.40
2018-10-18T10:09:07.569Z,46.40
2018-10-18T10:11:43.626Z,45.80
2018-10-18T10:14:19.736Z,45.00
2018-10-18T10:16:55.906Z,44.70
2018-10-18T10:19:31.988Z,44.00
2018-10-18T10:22:08.238Z,43.40
2018-10-18T10:24:44.283Z,42.90
2018-10-18T10:27:20.413Z,41.40
2018-10-18T10:29:56.604Z,41.30
2018-10-18T10:32:32.752Z,41.20
2018-10-18T10:35:09.356Z,40.40
2018-10-18T10:37:45.384Z,40.70
2018-10-18T10:40:21.559Z,40.20
2018-10-18T10:42:57.737Z,40.30
2018-10-18T10:45:33.965Z,40.50
2018-10-18T10:48:10.048Z,39.60
2018-10-18T10:50:46.177Z,39.00
2018-10-18T10:53:22.516Z,38.70
2018-10-18T10:55:58.618Z,39.10
2018-10-18T10:58:34.863Z,38.90
2018-10-18T11:01:18.902Z,38.70
2018-10-18T11:03:58.202Z,38.90
2018-10-18T11:06:34.264Z,38.90
2018-10-18T11:09:11.677Z,38.50
2018-10-18T11:11:47.877Z,38.20
2018-10-18T11:14:24.013Z,38.40
2018-10-18T11:17:00.081Z,38.80
2018-10-18T11:19:36.167Z,38.50
2018-10-18T11:22:12.276Z,38.70
2018-10-18T11:24:48.738Z,38.50
2018-10-18T11:27:24.810Z,39.10
2018-10-18T11:30:00.961Z,38.90
2018-10-18T11:32:37.111Z,38.20
2018-10-18T11:35:13.106Z,38.50
2018-10-18T11:37:49.452Z,39.00
2018-10-18T11:40:25.472Z,38.70
2018-10-18T11:43:01.545Z,39.30
2018-10-18T11:45:37.702Z,38.90
2018-10-18T11:48:14.618Z,38.10
2018-10-18T11:50:50.617Z,38.20
2018-10-18T11:53:26.929Z,38.20
2018-10-18T11:56:03.152Z,38.40
2018-10-18T11:58:39.080Z,37.90
2018-10-18T12:01:15.391Z,36.90
2018-10-18T12:03:51.367Z,37.90
2018-10-18T12:06:27.367Z,38.00
2018-10-18T12:09:04.463Z,38.40
2018-10-18T12:11:40.548Z,38.80
2018-10-18T12:14:16.703Z,39.40
2018-10-18T12:16:52.789Z,39.40
2018-10-18T12:19:28.811Z,39.80
2018-10-18T12:22:04.940Z,39.50
2018-10-18T12:24:40.934Z,39.50
2018-10-18T12:27:17.041Z,38.70
2018-10-18T12:29:53.179Z,39.20
2018-10-18T12:32:29.302Z,39.30
2018-10-18T12:35:05.578Z,38.60
2018-10-18T12:37:41.665Z,38.80
2018-10-18T12:40:17.680Z,38.70
2018-10-18T12:42:53.808Z,38.90
2018-10-18T12:45:29.823Z,39.30
2018-10-18T12:48:05.954Z,41.00
2018-10-18T12:50:42.053Z,41.80
2018-10-18T12:53:18.964Z,41.20
2018-10-18T12:55:55.090Z,40.20
2018-10-18T12:58:31.850Z,40.00
2018-10-18T13:01:09.293Z,40.00
2018-10-18T13:03:45.316Z,40.90
2018-10-18T13:06:21.379Z,41.30
2018-10-18T13:08:57.430Z,41.90
2018-10-18T13:11:33.599Z,42.10
2018-10-18T13:14:09.938Z,42.70
2018-10-18T13:16:45.912Z,43.40
2018-10-18T13:19:22.014Z,43.50
2018-10-18T13:21:58.119Z,43.40
2018-10-18T13:24:34.090Z,43.80
2018-10-18T13:27:10.417Z,44.30
2018-10-18T13:29:46.845Z,43.70
2018-10-18T13:35:02.184Z,43.90
2018-10-18T13:37:38.294Z,43.60
2018-10-18T13:40:14.375Z,43.60
2018-10-18T13:42:50.648Z,43.60
2018-10-18T13:45:26.752Z,43.50
2018-10-18T13:48:02.940Z,43.50
2018-10-18T13:50:38.980Z,43.80
2018-10-18T13:53:15.075Z,43.90
2018-10-18T13:55:51.287Z,43.50
2018-10-18T13:58:27.637Z,43.30
2018-10-18T14:01:03.692Z,44.00
2018-10-18T14:03:39.639Z,43.90
2018-10-18T14:06:15.803Z,44.30
2018-10-18T14:08:51.890Z,44.80
2018-10-18T14:11:28.030Z,45.30
2018-10-18T14:14:04.166Z,45.30
2018-10-18T14:16:40.271Z,45.50
2018-10-18T14:19:16.365Z,45.30
2018-10-18T14:21:52.451Z,45.70
2018-10-18T14:24:29.681Z,45.80
2018-10-18T14:27:06.145Z,46.00
2018-10-18T14:29:42.270Z,45.80
2018-10-18T14:32:18.443Z,46.00
2018-10-18T14:34:54.535Z,46.70
2018-10-18T14:37:30.780Z,47.00
2018-10-18T14:40:08.120Z,47.30
2018-10-18T14:42:44.058Z,47.50
2018-10-18T14:45:20.213Z,47.40
2018-10-18T14:47:56.375Z,47.50
2018-10-18T14:50:32.504Z,47.60
2018-10-18T14:53:09.240Z,48.10
2018-10-18T14:55:45.339Z,48.20
2018-10-18T14:58:21.339Z,48.80
2018-10-18T15:00:57.666Z,49.30
2018-10-18T15:03:33.676Z,50.00
2018-10-18T15:06:09.881Z,50.20
2018-10-18T15:08:45.893Z,50.40
2018-10-18T15:11:22.001Z,50.50
2018-10-18T15:13:58.031Z,50.70
2018-10-18T15:16:34.174Z,50.80
2018-10-18T15:19:10.229Z,51.00
2018-10-18T15:21:46.309Z,51.20
2018-10-18T15:24:22.382Z,51.80
2018-10-18T15:26:58.691Z,51.80
2018-10-18T15:29:34.639Z,52.00
2018-10-18T15:32:10.886Z,52.30
2018-10-18T15:34:47.138Z,52.70
2018-10-18T15:37:23.178Z,52.80
2018-10-18T15:39:59.356Z,53.10
2018-10-18T15:42:35.504Z,53.70
2018-10-18T15:45:11.741Z,53.90
2018-10-18T15:47:47.731Z,54.20
2018-10-18T15:50:23.761Z,54.20
2018-10-18T15:53:00.120Z,54.60
2018-10-18T15:55:36.123Z,54.90
2018-10-18T15:58:12.257Z,55.20
2018-10-18T16:00:48.581Z,55.50
2018-10-18T16:03:24.823Z,55.70
2018-10-18T16:06:01.056Z,55.80
2018-10-18T16:08:38.066Z,55.70
2018-10-18T16:11:15.438Z,55.60
2018-10-18T16:13:51.501Z,55.80
2018-10-18T16:16:27.683Z,55.90
2018-10-18T16:19:03.940Z,56.30
2018-10-18T16:21:39.968Z,56.60
2018-10-18T16:24:16.179Z,57.10
2018-10-18T16:26:52.175Z,57.60
2018-10-18T16:29:28.227Z,58.10
2018-10-18T16:32:04.917Z,58.10
2018-10-18T16:34:41.072Z,58.90
2018-10-18T16:37:17.229Z,59.00
2018-10-18T16:39:53.269Z,59.00
2018-10-18T16:42:30.043Z,59.30
2018-10-18T16:45:09.728Z,59.70
2018-10-18T16:47:45.780Z,59.90
2018-10-18T16:50:21.741Z,60.10
2018-10-18T16:53:00.607Z,60.50
2018-10-18T16:55:37.093Z,60.20
2018-10-18T16:58:13.955Z,60.10
2018-10-18T17:00:50.255Z,60.40
2018-10-18T17:03:26.465Z,60.80
2018-10-18T17:06:02.654Z,61.30
2018-10-18T17:08:40.616Z,61.80
2018-10-18T17:11:16.788Z,62.20
2018-10-18T17:13:52.752Z,62.10
2018-10-18T17:16:29.465Z,62.40
2018-10-18T17:19:06.084Z,62.60
2018-10-18T17:21:42.162Z,63.10
2018-10-18T17:24:18.692Z,63.30
2018-10-18T17:26:54.743Z,63.70
2018-10-18T17:29:30.803Z,63.80
2018-10-18T17:32:07.281Z,64.10
2018-10-18T17:34:43.328Z,64.50
2018-10-18T17:37:19.605Z,64.90
2018-10-18T17:39:55.808Z,65.10
2018-10-18T17:42:32.032Z,65.60
2018-10-18T17:45:10.642Z,65.50
2018-10-18T17:47:46.726Z,65.60
2018-10-18T17:50:23.096Z,65.90
2018-10-18T17:52:59.239Z,66.20
2018-10-18T17:55:35.648Z,66.50
2018-10-18T17:58:11.757Z,66.80
2018-10-18T18:00:47.800Z,67.30
2018-10-18T18:03:23.854Z,67.50
2018-10-18T18:06:00.299Z,67.80
2018-10-18T18:08:36.180Z,68.10
2018-10-18T18:11:12.489Z,67.80
2018-10-18T18:13:48.649Z,68.50
2018-10-18T18:16:24.661Z,68.80
2018-10-18T18:19:01.105Z,68.90
2018-10-18T18:21:37.276Z,68.90
2018-10-18T18:24:13.270Z,69.30
2018-10-18T18:26:49.299Z,69.80
2018-10-18T18:29:25.427Z,69.70
2018-10-18T18:32:01.469Z,69.90
2018-10-18T18:34:37.840Z,69.90
2018-10-18T18:37:13.891Z,70.10
2018-10-18T18:39:50.107Z,70.50
2018-10-18T18:42:26.151Z,70.80
2018-10-18T18:45:22.744Z,70.90
2018-10-18T18:47:58.768Z,71.10
2018-10-18T18:50:35.111Z,71.20
2018-10-18T18:53:11.093Z,71.20
2018-10-18T18:55:47.230Z,71.80
2018-10-18T18:58:23.367Z,71.60
2018-10-18T19:00:59.515Z,71.80
2018-10-18T19:03:35.754Z,71.80
2018-10-18T19:06:12.071Z,72.00
2018-10-18T19:08:48.088Z,72.40
2018-10-18T19:11:24.293Z,72.60
2018-10-18T19:14:00.450Z,72.80
2018-10-18T19:16:36.614Z,72.90
2018-10-18T19:19:12.744Z,72.90
2018-10-18T19:21:48.903Z,73.30
2018-10-18T19:24:26.122Z,73.60
2018-10-18T19:27:02.407Z,73.70
2018-10-18T19:29:38.749Z,73.70
2018-10-18T19:32:15.222Z,73.90
2018-10-18T19:34:51.524Z,75.20
2018-10-18T19:37:27.847Z,74.20
2018-10-18T19:40:03.932Z,74.30
2018-10-18T19:42:40.228Z,74.30
2018-10-18T19:45:17.152Z,74.50
2018-10-18T19:47:53.258Z,74.60
2018-10-18T19:50:29.888Z,74.70
2018-10-18T19:53:06.549Z,74.40
2018-10-18T19:55:42.780Z,74.70
2018-10-18T19:58:19.932Z,74.70
2018-10-18T20:00:55.965Z,75.00
2018-10-18T20:03:32.331Z,75.00
2018-10-18T20:06:08.717Z,75.00
2018-10-18T20:08:44.831Z,75.20
2018-10-18T20:11:20.909Z,75.30
2018-10-18T20:13:57.311Z,75.20
2018-10-18T20:16:33.628Z,75.30
2018-10-18T20:19:10.642Z,74.70
2018-10-18T20:21:46.989Z,75.60
2018-10-18T20:24:23.223Z,74.70
2018-10-18T20:26:59.321Z,74.60
2018-10-18T20:29:35.513Z,74.60
2018-10-18T20:32:11.687Z,74.40
2018-10-18T20:34:47.988Z,74.70
2018-10-18T20:37:24.336Z,74.50
2018-10-18T20:40:00.806Z,74.20
2018-10-18T20:42:37.020Z,74.40
2018-10-18T20:45:18.524Z,74.20
2018-10-18T20:47:55.010Z,74.50
2018-10-18T20:50:31.025Z,74.60
2018-10-18T20:53:07.283Z,74.70
2018-10-18T20:55:43.500Z,74.80
2018-10-18T20:58:19.655Z,74.60
2018-10-18T21:00:55.903Z,74.60
2018-10-18T21:03:32.309Z,74.30
2018-10-18T21:06:08.739Z,74.70
2018-10-18T21:08:45.338Z,74.90
2018-10-18T21:11:21.683Z,75.20
2018-10-18T21:13:57.719Z,75.20
2018-10-18T21:16:33.993Z,75.50
2018-10-18T21:19:10.432Z,75.00
2018-10-18T21:21:46.606Z,75.20
2018-10-18T21:24:22.688Z,75.10
2018-10-18T21:26:58.755Z,75.10
2018-10-18T21:29:34.909Z,74.80
2018-10-18T21:32:11.124Z,75.60
2018-10-18T21:34:47.267Z,75.80
2018-10-18T21:37:23.398Z,75.50
2018-10-18T21:39:59.616Z,75.90
2018-10-18T21:42:35.735Z,75.90
2018-10-18T21:45:11.901Z,76.20
2018-10-18T21:47:47.861Z,76.60
2018-10-18T21:50:24.134Z,76.10
2018-10-18T21:53:00.424Z,76.30
2018-10-18T21:55:36.395Z,75.80
2018-10-18T21:58:13.415Z,75.90
2018-10-18T22:00:49.780Z,76.00
2018-10-18T22:03:25.773Z,76.20
2018-10-18T22:06:02.124Z,76.00
2018-10-18T22:08:39.484Z,75.90
2018-10-18T22:11:15.916Z,75.80
2018-10-18T22:13:52.021Z,75.90
2018-10-18T22:16:28.155Z,75.80
2018-10-18T22:19:05.434Z,75.80
2018-10-18T22:21:41.495Z,75.60
2018-10-18T22:24:17.691Z,76.00
2018-10-18T22:26:53.880Z,75.90
2018-10-18T22:29:30.017Z,76.00
2018-10-18T22:32:06.505Z,75.70
2018-10-18T22:34:42.500Z,75.60
2018-10-18T22:37:18.777Z,75.70
2018-10-18T22:39:54.862Z,75.80
2018-10-18T22:42:31.082Z,75.70
2018-10-18T22:45:08.527Z,75.80
2018-10-18T22:47:44.530Z,76.00
2018-10-18T22:50:20.632Z,76.20
2018-10-18T22:52:56.749Z,76.40
2018-10-18T22:55:32.843Z,76.60
2018-10-18T22:58:09.083Z,76.70
2018-10-18T23:00:48.304Z,76.70
2018-10-18T23:03:24.458Z,76.60
2018-10-18T23:06:00.512Z,77.00
2018-10-18T23:08:36.711Z,77.20
2018-10-18T23:11:12.899Z,77.60
2018-10-18T23:13:49.001Z,77.40
2018-10-18T23:16:25.073Z,78.10
2018-10-18T23:19:01.158Z,77.60
2018-10-18T23:21:37.400Z,77.60
2018-10-18T23:24:13.430Z,77.90
2018-10-18T23:26:49.697Z,77.60
2018-10-18T23:29:25.877Z,77.60
2018-10-18T23:32:01.929Z,77.30
2018-10-18T23:34:38.169Z,77.50
2018-10-18T23:37:14.230Z,77.40
2018-10-18T23:39:50.300Z,77.30
2018-10-18T23:42:26.498Z,77.70
2018-10-18T23:45:02.761Z,77.10
2018-10-18T23:47:38.825Z,76.90
2018-10-18T23:50:14.976Z,76.90
2018-10-18T23:52:51.237Z,76.80
2018-10-18T23:55:27.410Z,76.80
2018-10-18T23:58:04.037Z,76.70
